首页
METAR-TAF:

METAR-TAF

机场 :

乌里扬诺夫斯克, 俄罗斯

纬度: 54-21N, 经度: 048-23E, 海拔: 77米

当前天气观测

该预报发布于18分钟前的12:00 UTC
风速19节,风向北转西北,有时为29节阵风
温度 -5°C
湿度 79%
气压 1004 hPa
能見度: 5000
阴天层高于2600英尺
小雪, 高吹雪

METAR: UWLW 271200Z 33010G15MPS 5000 -SN BLSN OVC026 M05/M08 Q1004 R20/491034 NOSIG RMK QFE748

时间: 15:18 (12:18 UTC)

预报

该预报发布于1小时和33分钟前的10:45 UTC
预报有效从27日的 12点(UTC)到 28日的 12点(UTC)
风速14节,风向西转西北,有时为27节阵风
能見度: 5000
阴天层高于1500英尺
小雪
短暂存在
从 27日的 12点(UTC)到 27日的 18点(UTC)
风速23节,风向北转西北,有时为35节阵风
能見度: 2100
阴天层高于700英尺
小雪, 高吹雪
成为
从 27日的 20点(UTC)到 27日的 21点(UTC)
风速6节,风向西转西北
短暂存在
从 27日的 21点(UTC)到 28日的 06点(UTC)
能見度: 3100
阴天层高于1100英尺
轻雾

TAF: UWLW 271045Z 2712/2812 30007G14MPS 5000 -SN OVC015 TEMPO 2712/2718 33012G18MPS 2100 -SN BLSN OVC007 BECMG 2720/2721 30003MPS TEMPO 2721/2806 3100 BR OVC011

超过4000个机场的气象观测和天气预报(METAR&TAF报告)。

可查询的气象台以黄色和红色小点在地图上表示。

将鼠标移到小点上方,可查看气象台名称。

然后点击查看天气观测和预报。

如需切换地图:点击带黑十字的绿色按钮放大地图;点击带横线的绿色按钮缩小地图;或者点击绿色箭头查看邻近地区的地图。


METAR-TAF: